sensor_id;sensor_type;location;lat;lon;timestamp;pressure;altitude;pressure_sealevel;temperature;humidity
77452;BME280;66537;52.370;4.832;2024-03-29T00:01:46;98985.09;;;9.32;100.00
77452;BME280;66537;52.370;4.832;2024-03-29T00:04:12;98987.56;;;9.33;100.00
77452;BME280;66537;52.370;4.832;2024-03-29T00:06:37;98981.66;;;9.31;100.00
77452;BME280;66537;52.370;4.832;2024-03-29T00:09:02;98984.75;;;9.38;100.00
77452;BME280;66537;52.370;4.832;2024-03-29T00:11:28;98982.50;;;9.32;100.00
77452;BME280;66537;52.370;4.832;2024-03-29T00:13:53;98986.31;;;9.25;100.00
77452;BME280;66537;52.370;4.832;2024-03-29T00:16:18;98988.69;;;9.12;100.00
77452;BME280;66537;52.370;4.832;2024-03-29T00:18:44;98987.53;;;9.18;100.00
77452;BME280;66537;52.370;4.832;2024-03-29T00:21:09;98983.22;;;9.18;100.00
77452;BME280;66537;52.370;4.832;2024-03-29T00:23:35;98984.78;;;9.05;100.00
77452;BME280;66537;52.370;4.832;2024-03-29T00:26:00;98988.47;;;9.17;100.00
77452;BME280;66537;52.370;4.832;2024-03-29T00:28:25;98999.69;;;9.16;100.00
77452;BME280;66537;52.370;4.832;2024-03-29T00:30:50;98998.63;;;9.20;100.00
77452;BME280;66537;52.370;4.832;2024-03-29T00:33:16;98996.59;;;9.09;100.00
77452;BME280;66537;52.370;4.832;2024-03-29T00:35:41;98994.59;;;9.14;100.00
77452;BME280;66537;52.370;4.832;2024-03-29T00:38:06;98995.69;;;9.10;100.00
77452;BME280;66537;52.370;4.832;2024-03-29T00:40:32;98999.53;;;9.19;100.00
77452;BME280;66537;52.370;4.832;2024-03-29T00:42:57;99013.88;;;9.24;100.00
77452;BME280;66537;52.370;4.832;2024-03-29T00:45:22;99003.31;;;9.29;100.00
77452;BME280;66537;52.370;4.832;2024-03-29T00:47:48;99011.06;;;9.29;100.00
77452;BME280;66537;52.370;4.832;2024-03-29T00:50:13;99007.59;;;9.13;100.00
77452;BME280;66537;52.370;4.832;2024-03-29T00:52:38;99012.59;;;9.16;100.00
77452;BME280;66537;52.370;4.832;2024-03-29T00:55:04;99010.19;;;9.13;100.00
77452;BME280;66537;52.370;4.832;2024-03-29T00:57:30;99018.31;;;9.05;100.00
77452;BME280;66537;52.370;4.832;2024-03-29T00:59:55;99019.16;;;8.88;100.00
77452;BME280;66537;52.370;4.832;2024-03-29T01:02:24;99016.91;;;8.82;100.00
77452;BME280;66537;52.370;4.832;2024-03-29T01:04:52;99019.22;;;8.87;100.00
77452;BME280;66537;52.370;4.832;2024-03-29T01:07:17;99012.25;;;8.89;100.00
77452;BME280;66537;52.370;4.832;2024-03-29T01:09:43;99016.13;;;8.97;100.00
77452;BME280;66537;52.370;4.832;2024-03-29T01:12:09;99008.25;;;8.83;100.00
77452;BME280;66537;52.370;4.832;2024-03-29T01:14:34;99021.44;;;8.77;100.00
77452;BME280;66537;52.370;4.832;2024-03-29T01:16:59;99021.69;;;8.73;100.00
77452;BME280;66537;52.370;4.832;2024-03-29T01:19:25;99032.44;;;8.81;100.00
77452;BME280;66537;52.370;4.832;2024-03-29T01:21:50;99016.53;;;8.73;100.00
77452;BME280;66537;52.370;4.832;2024-03-29T01:24:15;99018.28;;;8.72;100.00
77452;BME280;66537;52.370;4.832;2024-03-29T01:26:41;99013.34;;;8.68;100.00
77452;BME280;66537;52.370;4.832;2024-03-29T01:29:06;99020.09;;;8.70;100.00
77452;BME280;66537;52.370;4.832;2024-03-29T01:31:31;99006.66;;;8.81;100.00
77452;BME280;66537;52.370;4.832;2024-03-29T01:33:57;99015.69;;;8.72;100.00
77452;BME280;66537;52.370;4.832;2024-03-29T01:36:23;99014.19;;;8.68;100.00
77452;BME280;66537;52.370;4.832;2024-03-29T01:38:49;99012.94;;;8.75;100.00
77452;BME280;66537;52.370;4.832;2024-03-29T01:41:16;99008.41;;;8.80;100.00
77452;BME280;66537;52.370;4.832;2024-03-29T01:43:41;99012.13;;;8.75;100.00
77452;BME280;66537;52.370;4.832;2024-03-29T01:46:07;99007.72;;;8.77;100.00
77452;BME280;66537;52.370;4.832;2024-03-29T01:48:33;98997.88;;;8.68;100.00
77452;BME280;66537;52.370;4.832;2024-03-29T01:50:59;98999.75;;;8.81;100.00
77452;BME280;66537;52.370;4.832;2024-03-29T01:53:26;98989.81;;;8.74;100.00
77452;BME280;66537;52.370;4.832;2024-03-29T01:55:51;98996.19;;;8.84;100.00
77452;BME280;66537;52.370;4.832;2024-03-29T01:58:18;99005.13;;;8.94;100.00
77452;BME280;66537;52.370;4.832;2024-03-29T02:00:51;98989.66;;;8.94;100.00
77452;BME280;66537;52.370;4.832;2024-03-29T02:03:17;98987.91;;;8.77;100.00
77452;BME280;66537;52.370;4.832;2024-03-29T02:05:43;98976.31;;;8.86;100.00
77452;BME280;66537;52.370;4.832;2024-03-29T02:08:10;98981.63;;;8.83;100.00
77452;BME280;66537;52.370;4.832;2024-03-29T02:10:36;98979.50;;;8.74;100.00
77452;BME280;66537;52.370;4.832;2024-03-29T02:13:02;98994.09;;;8.75;100.00
77452;BME280;66537;52.370;4.832;2024-03-29T02:15:28;98996.03;;;8.70;100.00
77452;BME280;66537;52.370;4.832;2024-03-29T02:17:54;98986.28;;;8.76;100.00
77452;BME280;66537;52.370;4.832;2024-03-29T02:20:19;98988.53;;;8.82;100.00
77452;BME280;66537;52.370;4.832;2024-03-29T02:22:54;98987.16;;;8.75;100.00
77452;BME280;66537;52.370;4.832;2024-03-29T02:25:20;99001.19;;;8.70;100.00
77452;BME280;66537;52.370;4.832;2024-03-29T02:27:46;99001.09;;;8.88;100.00
77452;BME280;66537;52.370;4.832;2024-03-29T02:30:16;99003.19;;;8.82;100.00
77452;BME280;66537;52.370;4.832;2024-03-29T02:32:42;98993.69;;;8.82;100.00
77452;BME280;66537;52.370;4.832;2024-03-29T02:35:08;99000.06;;;8.75;100.00
77452;BME280;66537;52.370;4.832;2024-03-29T02:37:35;99000.34;;;8.69;100.00
77452;BME280;66537;52.370;4.832;2024-03-29T02:40:00;99005.66;;;8.83;100.00
77452;BME280;66537;52.370;4.832;2024-03-29T02:42:25;99004.69;;;8.86;100.00
77452;BME280;66537;52.370;4.832;2024-03-29T02:44:50;99010.69;;;8.86;100.00
77452;BME280;66537;52.370;4.832;2024-03-29T02:47:16;99009.47;;;8.76;100.00
77452;BME280;66537;52.370;4.832;2024-03-29T02:49:41;99012.66;;;8.81;100.00
77452;BME280;66537;52.370;4.832;2024-03-29T02:52:06;99014.75;;;8.90;100.00
77452;BME280;66537;52.370;4.832;2024-03-29T02:54:32;99016.56;;;8.88;100.00
77452;BME280;66537;52.370;4.832;2024-03-29T02:56:58;99014.06;;;8.87;100.00
77452;BME280;66537;52.370;4.832;2024-03-29T02:59:23;99017.50;;;8.87;100.00
77452;BME280;66537;52.370;4.832;2024-03-29T03:01:48;99021.69;;;8.90;100.00
77452;BME280;66537;52.370;4.832;2024-03-29T03:04:14;99028.97;;;8.82;100.00
77452;BME280;66537;52.370;4.832;2024-03-29T03:06:39;99023.94;;;8.96;100.00
77452;BME280;66537;52.370;4.832;2024-03-29T03:09:04;99024.38;;;8.87;100.00
77452;BME280;66537;52.370;4.832;2024-03-29T03:11:48;99009.69;;;8.89;100.00
77452;BME280;66537;52.370;4.832;2024-03-29T03:14:13;99007.00;;;8.90;100.00
77452;BME280;66537;52.370;4.832;2024-03-29T03:16:39;99011.28;;;8.74;100.00
77452;BME280;66537;52.370;4.832;2024-03-29T03:19:04;99010.28;;;8.77;100.00
77452;BME280;66537;52.370;4.832;2024-03-29T03:21:29;99021.31;;;8.80;100.00
77452;BME280;66537;52.370;4.832;2024-03-29T03:23:55;99020.47;;;8.80;100.00
77452;BME280;66537;52.370;4.832;2024-03-29T03:26:20;99026.69;;;8.76;100.00
77452;BME280;66537;52.370;4.832;2024-03-29T03:28:45;99025.44;;;8.83;100.00
77452;BME280;66537;52.370;4.832;2024-03-29T03:31:11;99032.75;;;8.75;100.00
77452;BME280;66537;52.370;4.832;2024-03-29T03:33:36;99030.84;;;8.78;100.00
77452;BME280;66537;52.370;4.832;2024-03-29T03:36:01;99037.28;;;8.87;100.00
77452;BME280;66537;52.370;4.832;2024-03-29T03:38:27;99033.50;;;8.94;100.00
77452;BME280;66537;52.370;4.832;2024-03-29T03:40:53;99046.84;;;8.85;100.00
77452;BME280;66537;52.370;4.832;2024-03-29T03:43:18;99052.53;;;8.91;100.00
77452;BME280;66537;52.370;4.832;2024-03-29T03:45:43;99044.41;;;8.99;100.00
77452;BME280;66537;52.370;4.832;2024-03-29T03:48:10;99046.44;;;8.92;100.00
77452;BME280;66537;52.370;4.832;2024-03-29T03:50:37;99053.13;;;9.14;100.00
77452;BME280;66537;52.370;4.832;2024-03-29T03:53:03;99049.63;;;9.15;100.00
77452;BME280;66537;52.370;4.832;2024-03-29T03:55:28;99049.03;;;9.09;100.00
77452;BME280;66537;52.370;4.832;2024-03-29T03:57:54;99049.34;;;9.03;100.00
77452;BME280;66537;52.370;4.832;2024-03-29T04:00:20;99046.22;;;8.97;100.00
77452;BME280;66537;52.370;4.832;2024-03-29T04:02:49;99053.59;;;9.04;100.00
77452;BME280;66537;52.370;4.832;2024-03-29T04:05:24;99054.28;;;8.91;100.00
77452;BME280;66537;52.370;4.832;2024-03-29T04:07:50;99059.22;;;8.95;100.00
77452;BME280;66537;52.370;4.832;2024-03-29T04:10:15;99049.72;;;9.13;100.00
77452;BME280;66537;52.370;4.832;2024-03-29T04:12:40;99066.03;;;9.14;100.00
77452;BME280;66537;52.370;4.832;2024-03-29T04:15:06;99061.50;;;9.01;100.00
77452;BME280;66537;52.370;4.832;2024-03-29T04:17:32;99069.59;;;9.11;100.00
77452;BME280;66537;52.370;4.832;2024-03-29T04:19:59;99072.69;;;9.18;100.00
77452;BME280;66537;52.370;4.832;2024-03-29T04:22:24;99061.84;;;9.11;100.00
77452;BME280;66537;52.370;4.832;2024-03-29T04:24:50;99064.03;;;9.19;100.00
77452;BME280;66537;52.370;4.832;2024-03-29T04:27:16;99058.34;;;9.12;100.00
77452;BME280;66537;52.370;4.832;2024-03-29T04:29:41;99061.69;;;9.14;100.00
77452;BME280;66537;52.370;4.832;2024-03-29T04:32:07;99064.16;;;9.00;100.00
77452;BME280;66537;52.370;4.832;2024-03-29T04:34:33;99052.31;;;8.96;100.00
77452;BME280;66537;52.370;4.832;2024-03-29T04:36:59;99051.69;;;8.91;100.00
77452;BME280;66537;52.370;4.832;2024-03-29T04:39:24;99058.06;;;8.84;100.00
77452;BME280;66537;52.370;4.832;2024-03-29T04:41:50;99057.41;;;8.80;100.00
77452;BME280;66537;52.370;4.832;2024-03-29T04:44:23;99054.28;;;8.74;100.00
77452;BME280;66537;52.370;4.832;2024-03-29T04:46:50;99057.78;;;8.73;100.00
77452;BME280;66537;52.370;4.832;2024-03-29T04:49:15;99060.78;;;8.64;100.00
77452;BME280;66537;52.370;4.832;2024-03-29T04:51:42;99058.75;;;8.70;100.00
77452;BME280;66537;52.370;4.832;2024-03-29T04:54:08;99065.06;;;8.65;100.00
77452;BME280;66537;52.370;4.832;2024-03-29T04:56:34;99067.75;;;8.62;100.00
77452;BME280;66537;52.370;4.832;2024-03-29T04:59:01;99075.56;;;8.60;100.00
77452;BME280;66537;52.370;4.832;2024-03-29T05:01:27;99067.63;;;8.65;100.00
77452;BME280;66537;52.370;4.832;2024-03-29T05:03:52;99069.84;;;8.72;100.00
77452;BME280;66537;52.370;4.832;2024-03-29T05:06:18;99089.81;;;8.67;100.00
77452;BME280;66537;52.370;4.832;2024-03-29T05:08:43;99085.19;;;8.57;100.00
77452;BME280;66537;52.370;4.832;2024-03-29T05:11:09;99088.63;;;8.74;100.00
77452;BME280;66537;52.370;4.832;2024-03-29T05:13:36;99081.50;;;8.79;100.00
77452;BME280;66537;52.370;4.832;2024-03-29T05:16:03;99088.00;;;8.69;100.00
77452;BME280;66537;52.370;4.832;2024-03-29T05:18:29;99085.88;;;8.60;100.00
77452;BME280;66537;52.370;4.832;2024-03-29T05:20:54;99086.75;;;8.78;100.00
77452;BME280;66537;52.370;4.832;2024-03-29T05:23:20;99086.53;;;8.82;100.00
77452;BME280;66537;52.370;4.832;2024-03-29T05:25:45;99092.44;;;8.84;100.00
77452;BME280;66537;52.370;4.832;2024-03-29T05:28:13;99087.28;;;8.84;100.00
77452;BME280;66537;52.370;4.832;2024-03-29T05:30:38;99081.66;;;8.76;100.00
77452;BME280;66537;52.370;4.832;2024-03-29T05:33:04;99072.72;;;8.83;100.00
77452;BME280;66537;52.370;4.832;2024-03-29T05:35:30;99081.28;;;8.84;100.00
77452;BME280;66537;52.370;4.832;2024-03-29T05:37:55;99089.78;;;8.69;100.00
77452;BME280;66537;52.370;4.832;2024-03-29T05:40:20;99094.69;;;8.73;100.00
77452;BME280;66537;52.370;4.832;2024-03-29T05:42:50;99096.44;;;8.73;100.00
77452;BME280;66537;52.370;4.832;2024-03-29T05:45:27;99095.78;;;8.86;100.00
77452;BME280;66537;52.370;4.832;2024-03-29T05:47:57;99104.41;;;8.85;100.00
77452;BME280;66537;52.370;4.832;2024-03-29T05:50:23;99112.22;;;8.84;100.00
77452;BME280;66537;52.370;4.832;2024-03-29T05:52:50;99120.63;;;8.70;100.00
77452;BME280;66537;52.370;4.832;2024-03-29T05:55:16;99124.63;;;8.59;100.00
77452;BME280;66537;52.370;4.832;2024-03-29T05:57:41;99122.25;;;8.54;100.00
77452;BME280;66537;52.370;4.832;2024-03-29T06:00:11;99124.84;;;8.54;100.00
77452;BME280;66537;52.370;4.832;2024-03-29T06:02:37;99135.16;;;8.71;100.00
77452;BME280;66537;52.370;4.832;2024-03-29T06:05:03;99134.69;;;8.63;100.00
77452;BME280;66537;52.370;4.832;2024-03-29T06:07:30;99138.13;;;8.64;100.00
77452;BME280;66537;52.370;4.832;2024-03-29T06:09:58;99152.00;;;8.61;100.00
77452;BME280;66537;52.370;4.832;2024-03-29T06:12:24;99147.53;;;8.65;100.00
77452;BME280;66537;52.370;4.832;2024-03-29T06:14:49;99150.09;;;8.48;100.00
77452;BME280;66537;52.370;4.832;2024-03-29T06:17:33;99155.44;;;8.43;100.00
77452;BME280;66537;52.370;4.832;2024-03-29T06:20:01;99157.56;;;8.52;100.00
77452;BME280;66537;52.370;4.832;2024-03-29T06:22:29;99157.03;;;8.46;100.00
77452;BME280;66537;52.370;4.832;2024-03-29T06:24:57;99158.69;;;8.47;100.00
77452;BME280;66537;52.370;4.832;2024-03-29T06:27:33;99169.78;;;8.49;100.00
77452;BME280;66537;52.370;4.832;2024-03-29T06:29:59;99177.09;;;8.39;100.00
77452;BME280;66537;52.370;4.832;2024-03-29T06:32:25;99176.09;;;8.23;100.00
77452;BME280;66537;52.370;4.832;2024-03-29T06:34:50;99182.44;;;8.16;100.00
77452;BME280;66537;52.370;4.832;2024-03-29T06:37:16;99178.66;;;8.23;100.00
77452;BME280;66537;52.370;4.832;2024-03-29T06:39:42;99185.66;;;8.40;100.00
77452;BME280;66537;52.370;4.832;2024-03-29T06:42:09;99180.78;;;8.34;100.00
77452;BME280;66537;52.370;4.832;2024-03-29T06:44:34;99173.50;;;8.23;100.00
77452;BME280;66537;52.370;4.832;2024-03-29T06:47:00;99168.97;;;8.30;100.00
77452;BME280;66537;52.370;4.832;2024-03-29T06:49:25;99174.44;;;8.41;100.00
77452;BME280;66537;52.370;4.832;2024-03-29T06:51:51;99167.00;;;8.53;100.00
77452;BME280;66537;52.370;4.832;2024-03-29T06:54:16;99177.91;;;8.58;100.00
77452;BME280;66537;52.370;4.832;2024-03-29T06:56:42;99166.94;;;8.72;100.00
77452;BME280;66537;52.370;4.832;2024-03-29T06:59:07;99156.19;;;8.81;100.00
77452;BME280;66537;52.370;4.832;2024-03-29T07:01:33;99158.88;;;8.96;100.00
77452;BME280;66537;52.370;4.832;2024-03-29T07:03:58;99156.91;;;9.01;100.00
77452;BME280;66537;52.370;4.832;2024-03-29T07:06:24;99146.81;;;8.97;100.00
77452;BME280;66537;52.370;4.832;2024-03-29T07:08:50;99170.41;;;9.06;100.00
77452;BME280;66537;52.370;4.832;2024-03-29T07:11:15;99176.03;;;9.15;100.00
77452;BME280;66537;52.370;4.832;2024-03-29T07:13:41;99166.25;;;9.21;100.00
77452;BME280;66537;52.370;4.832;2024-03-29T07:16:06;99166.09;;;9.41;100.00
77452;BME280;66537;52.370;4.832;2024-03-29T07:18:34;99169.78;;;9.53;100.00
77452;BME280;66537;52.370;4.832;2024-03-29T07:21:00;99177.31;;;9.57;100.00
77452;BME280;66537;52.370;4.832;2024-03-29T07:23:25;99178.69;;;10.14;100.00
77452;BME280;66537;52.370;4.832;2024-03-29T07:26:02;99181.69;;;10.53;100.00
77452;BME280;66537;52.370;4.832;2024-03-29T07:28:28;99181.97;;;10.94;100.00
77452;BME280;66537;52.370;4.832;2024-03-29T07:30:54;99176.72;;;10.96;100.00
77452;BME280;66537;52.370;4.832;2024-03-29T07:33:23;99178.13;;;11.60;100.00
77452;BME280;66537;52.370;4.832;2024-03-29T07:35:51;99182.88;;;11.68;100.00
77452;BME280;66537;52.370;4.832;2024-03-29T07:38:16;99185.09;;;12.16;100.00
77452;BME280;66537;52.370;4.832;2024-03-29T07:40:42;99188.91;;;12.25;100.00
77452;BME280;66537;52.370;4.832;2024-03-29T07:43:08;99193.38;;;13.04;100.00
77452;BME280;66537;52.370;4.832;2024-03-29T07:45:33;99187.44;;;13.54;100.00
77452;BME280;66537;52.370;4.832;2024-03-29T07:47:58;99189.97;;;13.81;100.00
77452;BME280;66537;52.370;4.832;2024-03-29T07:50:24;99195.69;;;13.73;100.00
77452;BME280;66537;52.370;4.832;2024-03-29T07:52:50;99194.56;;;13.90;100.00
77452;BME280;66537;52.370;4.832;2024-03-29T07:55:16;99196.38;;;15.21;100.00
77452;BME280;66537;52.370;4.832;2024-03-29T07:57:41;99190.97;;;15.01;100.00
77452;BME280;66537;52.370;4.832;2024-03-29T08:00:07;99192.03;;;14.26;100.00
77452;BME280;66537;52.370;4.832;2024-03-29T08:02:32;99183.16;;;13.40;100.00
77452;BME280;66537;52.370;4.832;2024-03-29T08:04:58;99196.13;;;13.01;100.00
77452;BME280;66537;52.370;4.832;2024-03-29T08:07:24;99201.63;;;13.63;100.00
77452;BME280;66537;52.370;4.832;2024-03-29T08:09:49;99203.72;;;13.31;100.00
77452;BME280;66537;52.370;4.832;2024-03-29T08:12:15;99208.06;;;12.77;100.00
77452;BME280;66537;52.370;4.832;2024-03-29T08:14:41;99193.78;;;13.11;100.00
77452;BME280;66537;52.370;4.832;2024-03-29T08:17:06;99189.34;;;14.15;100.00
77452;BME280;66537;52.370;4.832;2024-03-29T08:19:39;99195.03;;;14.07;100.00
77452;BME280;66537;52.370;4.832;2024-03-29T08:22:04;99216.88;;;14.55;100.00
77452;BME280;66537;52.370;4.832;2024-03-29T08:24:30;99235.31;;;14.88;100.00
77452;BME280;66537;52.370;4.832;2024-03-29T08:26:56;99218.91;;;15.46;100.00
77452;BME280;66537;52.370;4.832;2024-03-29T08:29:21;99180.97;;;16.21;100.00
77452;BME280;66537;52.370;4.832;2024-03-29T08:31:46;99192.13;;;15.44;100.00
77452;BME280;66537;52.370;4.832;2024-03-29T08:34:12;99203.13;;;15.13;100.00
77452;BME280;66537;52.370;4.832;2024-03-29T08:36:39;99205.19;;;15.08;100.00
77452;BME280;66537;52.370;4.832;2024-03-29T08:39:04;99203.34;;;14.25;100.00
77452;BME280;66537;52.370;4.832;2024-03-29T08:41:30;99221.47;;;14.14;100.00
77452;BME280;66537;52.370;4.832;2024-03-29T08:43:56;99225.66;;;15.01;100.00
77452;BME280;66537;52.370;4.832;2024-03-29T08:46:21;99231.97;;;14.12;100.00
77452;BME280;66537;52.370;4.832;2024-03-29T08:48:46;99243.09;;;14.02;100.00
77452;BME280;66537;52.370;4.832;2024-03-29T08:51:11;99233.53;;;12.85;100.00
77452;BME280;66537;52.370;4.832;2024-03-29T08:53:37;99232.56;;;12.45;100.00
77452;BME280;66537;52.370;4.832;2024-03-29T08:56:02;99240.50;;;12.70;100.00
77452;BME280;66537;52.370;4.832;2024-03-29T08:58:28;99246.63;;;11.85;100.00
77452;BME280;66537;52.370;4.832;2024-03-29T09:00:54;99250.53;;;11.92;100.00
77452;BME280;66537;52.370;4.832;2024-03-29T09:03:22;99253.22;;;12.04;100.00
77452;BME280;66537;52.370;4.832;2024-03-29T09:05:47;99260.22;;;11.74;100.00
77452;BME280;66537;52.370;4.832;2024-03-29T09:08:13;99261.28;;;11.86;100.00
77452;BME280;66537;52.370;4.832;2024-03-29T09:10:38;99273.81;;;12.07;100.00
77452;BME280;66537;52.370;4.832;2024-03-29T09:13:04;99272.50;;;12.28;100.00
77452;BME280;66537;52.370;4.832;2024-03-29T09:15:32;99247.56;;;12.68;100.00
77452;BME280;66537;52.370;4.832;2024-03-29T09:17:57;99253.47;;;12.84;100.00
77452;BME280;66537;52.370;4.832;2024-03-29T09:20:26;99264.22;;;13.06;100.00
77452;BME280;66537;52.370;4.832;2024-03-29T09:22:51;99260.41;;;13.24;100.00
77452;BME280;66537;52.370;4.832;2024-03-29T09:25:17;99269.47;;;12.08;100.00
77452;BME280;66537;52.370;4.832;2024-03-29T09:27:45;99281.59;;;12.21;100.00
77452;BME280;66537;52.370;4.832;2024-03-29T09:30:12;99274.53;;;12.65;100.00
77452;BME280;66537;52.370;4.832;2024-03-29T09:32:37;99265.09;;;13.19;100.00
77452;BME280;66537;52.370;4.832;2024-03-29T09:35:03;99267.41;;;13.24;100.00
77452;BME280;66537;52.370;4.832;2024-03-29T09:37:29;99269.53;;;13.44;100.00
77452;BME280;66537;52.370;4.832;2024-03-29T09:39:54;99252.22;;;13.30;100.00
77452;BME280;66537;52.370;4.832;2024-03-29T09:42:21;99265.78;;;14.12;100.00
77452;BME280;66537;52.370;4.832;2024-03-29T09:44:50;99265.25;;;14.20;100.00
77452;BME280;66537;52.370;4.832;2024-03-29T09:47:17;99276.88;;;15.61;100.00
77452;BME280;66537;52.370;4.832;2024-03-29T09:49:44;99286.97;;;15.18;100.00
77452;BME280;66537;52.370;4.832;2024-03-29T09:52:10;99292.59;;;14.76;100.00
77452;BME280;66537;52.370;4.832;2024-03-29T09:54:37;99289.38;;;14.09;100.00
77452;BME280;66537;52.370;4.832;2024-03-29T09:57:04;99292.50;;;13.89;100.00
77452;BME280;66537;52.370;4.832;2024-03-29T09:59:30;99288.94;;;13.90;100.00
77452;BME280;66537;52.370;4.832;2024-03-29T10:01:56;99282.66;;;12.88;100.00
77452;BME280;66537;52.370;4.832;2024-03-29T10:04:23;99283.09;;;12.94;100.00
77452;BME280;66537;52.370;4.832;2024-03-29T10:06:49;99274.47;;;13.34;100.00
77452;BME280;66537;52.370;4.832;2024-03-29T10:09:17;99276.72;;;13.26;100.00
77452;BME280;66537;52.370;4.832;2024-03-29T10:11:43;99276.69;;;13.14;100.00
77452;BME280;66537;52.370;4.832;2024-03-29T10:14:09;99271.75;;;13.23;100.00
77452;BME280;66537;52.370;4.832;2024-03-29T10:16:35;99270.00;;;13.24;100.00
77452;BME280;66537;52.370;4.832;2024-03-29T10:19:00;99267.81;;;13.70;100.00
77452;BME280;66537;52.370;4.832;2024-03-29T10:21:25;99268.91;;;14.17;100.00
77452;BME280;66537;52.370;4.832;2024-03-29T10:23:53;99267.97;;;14.18;100.00
77452;BME280;66537;52.370;4.832;2024-03-29T10:26:20;99276.31;;;14.48;100.00
77452;BME280;66537;52.370;4.832;2024-03-29T10:28:46;99277.38;;;13.69;100.00
77452;BME280;66537;52.370;4.832;2024-03-29T10:31:11;99280.16;;;13.53;100.00
77452;BME280;66537;52.370;4.832;2024-03-29T10:33:38;99281.16;;;13.38;100.00
77452;BME280;66537;52.370;4.832;2024-03-29T10:36:04;99280.94;;;13.01;100.00
77452;BME280;66537;52.370;4.832;2024-03-29T10:38:31;99286.41;;;12.55;100.00
77452;BME280;66537;52.370;4.832;2024-03-29T10:40:57;99291.84;;;12.79;100.00
77452;BME280;66537;52.370;4.832;2024-03-29T10:43:23;99300.28;;;13.37;100.00
77452;BME280;66537;52.370;4.832;2024-03-29T10:45:49;99292.84;;;12.91;100.00
77452;BME280;66537;52.370;4.832;2024-03-29T10:48:16;99287.63;;;12.50;100.00
77452;BME280;66537;52.370;4.832;2024-03-29T10:50:43;99294.72;;;12.18;100.00
77452;BME280;66537;52.370;4.832;2024-03-29T10:53:09;99294.63;;;12.20;100.00
77452;BME280;66537;52.370;4.832;2024-03-29T10:55:36;99293.25;;;12.28;100.00
77452;BME280;66537;52.370;4.832;2024-03-29T10:58:06;99300.56;;;12.22;100.00
77452;BME280;66537;52.370;4.832;2024-03-29T11:00:38;99313.19;;;11.84;100.00
77452;BME280;66537;52.370;4.832;2024-03-29T11:03:14;99328.25;;;11.77;100.00
77452;BME280;66537;52.370;4.832;2024-03-29T11:05:51;99327.44;;;12.77;100.00
77452;BME280;66537;52.370;4.832;2024-03-29T11:08:24;99335.22;;;12.49;100.00
77452;BME280;66537;52.370;4.832;2024-03-29T11:10:53;99328.81;;;12.68;100.00
77452;BME280;66537;52.370;4.832;2024-03-29T11:13:33;99336.97;;;12.62;100.00
77452;BME280;66537;52.370;4.832;2024-03-29T11:16:00;99324.66;;;12.80;100.00
77452;BME280;66537;52.370;4.832;2024-03-29T11:18:27;99323.88;;;13.20;100.00
77452;BME280;66537;52.370;4.832;2024-03-29T11:20:53;99328.38;;;13.57;100.00
77452;BME280;66537;52.370;4.832;2024-03-29T11:23:20;99323.88;;;14.51;100.00
77452;BME280;66537;52.370;4.832;2024-03-29T11:25:49;99317.00;;;14.37;100.00
77452;BME280;66537;52.370;4.832;2024-03-29T11:28:23;99323.41;;;14.82;100.00
77452;BME280;66537;52.370;4.832;2024-03-29T11:30:50;99335.06;;;14.13;100.00
77452;BME280;66537;52.370;4.832;2024-03-29T11:35:56;99337.66;;;15.01;100.00
77452;BME280;66537;52.370;4.832;2024-03-29T11:38:22;99360.31;;;14.38;100.00
77452;BME280;66537;52.370;4.832;2024-03-29T11:41:07;99343.31;;;14.32;100.00
77452;BME280;66537;52.370;4.832;2024-03-29T11:43:34;99346.59;;;14.09;100.00
77452;BME280;66537;52.370;4.832;2024-03-29T11:46:00;99351.44;;;13.89;100.00
77452;BME280;66537;52.370;4.832;2024-03-29T11:48:27;99337.88;;;14.10;100.00
77452;BME280;66537;52.370;4.832;2024-03-29T11:50:53;99348.97;;;13.87;100.00
77452;BME280;66537;52.370;4.832;2024-03-29T11:53:20;99345.63;;;13.98;100.00
77452;BME280;66537;52.370;4.832;2024-03-29T11:55:46;99353.25;;;14.13;100.00
77452;BME280;66537;52.370;4.832;2024-03-29T11:58:11;99349.34;;;14.20;100.00
77452;BME280;66537;52.370;4.832;2024-03-29T12:00:38;99338.69;;;13.98;100.00
77452;BME280;66537;52.370;4.832;2024-03-29T12:03:04;99343.03;;;13.85;100.00
77452;BME280;66537;52.370;4.832;2024-03-29T12:05:30;99337.88;;;14.10;100.00
77452;BME280;66537;52.370;4.832;2024-03-29T12:07:57;99340.72;;;14.32;100.00
77452;BME280;66537;52.370;4.832;2024-03-29T12:10:27;99344.72;;;14.11;100.00
77452;BME280;66537;52.370;4.832;2024-03-29T12:12:56;99348.19;;;14.24;100.00
77452;BME280;66537;52.370;4.832;2024-03-29T12:15:23;99348.69;;;14.04;100.00
77452;BME280;66537;52.370;4.832;2024-03-29T12:17:56;99357.09;;;14.08;100.00
77452;BME280;66537;52.370;4.832;2024-03-29T12:20:22;99337.81;;;14.37;100.00
77452;BME280;66537;52.370;4.832;2024-03-29T12:22:47;99338.53;;;14.64;100.00
77452;BME280;66537;52.370;4.832;2024-03-29T12:25:13;99344.47;;;14.66;100.00
77452;BME280;66537;52.370;4.832;2024-03-29T12:27:38;99344.47;;;14.66;100.00
77452;BME280;66537;52.370;4.832;2024-03-29T12:30:05;99337.78;;;15.00;100.00
77452;BME280;66537;52.370;4.832;2024-03-29T12:32:31;99354.16;;;14.64;100.00
77452;BME280;66537;52.370;4.832;2024-03-29T12:37:35;99330.63;;;14.40;100.00
77452;BME280;66537;52.370;4.832;2024-03-29T12:40:00;99335.00;;;14.53;100.00
77452;BME280;66537;52.370;4.832;2024-03-29T12:42:27;99324.88;;;14.86;100.00
77452;BME280;66537;52.370;4.832;2024-03-29T12:44:56;99342.78;;;14.90;100.00
77452;BME280;66537;52.370;4.832;2024-03-29T12:47:21;99353.22;;;14.53;100.00
77452;BME280;66537;52.370;4.832;2024-03-29T12:49:48;99341.44;;;14.72;100.00
77452;BME280;66537;52.370;4.832;2024-03-29T12:52:13;99334.97;;;14.90;100.00
77452;BME280;66537;52.370;4.832;2024-03-29T12:54:38;99346.97;;;14.80;100.00
77452;BME280;66537;52.370;4.832;2024-03-29T12:57:04;99356.13;;;14.73;100.00